createdAt,value
2019-05-16T00:00:36.552Z,101282.31
2019-05-16T00:03:08.342Z,101280.49
2019-05-16T00:05:50.812Z,101270.41
2019-05-16T00:08:13.277Z,101265.70
2019-05-16T00:10:44.731Z,101264.86
2019-05-16T00:13:18.539Z,101256.27
2019-05-16T00:15:49.811Z,101254.88
2019-05-16T00:18:20.770Z,101253.97
2019-05-16T00:20:52.592Z,101250.80
2019-05-16T00:23:24.742Z,101251.52
2019-05-16T00:25:58.623Z,101245.62
2019-05-16T00:28:29.487Z,101246.48
2019-05-16T00:31:01.423Z,101238.23
2019-05-16T00:33:33.696Z,101234.35
2019-05-16T00:36:06.782Z,101230.97
2019-05-16T00:38:39.056Z,101239.05
2019-05-16T00:41:10.938Z,101234.45
2019-05-16T00:43:42.321Z,101230.33
2019-05-16T00:46:14.327Z,101225.96
2019-05-16T00:48:48.567Z,101228.80
2019-05-16T00:51:20.099Z,101219.55
2019-05-16T00:53:52.053Z,101215.69
2019-05-16T00:56:23.810Z,101212.72
2019-05-16T00:58:58.716Z,101214.56
2019-05-16T01:01:30.300Z,101206.03
2019-05-16T01:04:01.875Z,101211.92
2019-05-16T01:06:33.196Z,101207.55
2019-05-16T01:09:08.657Z,101203.53
2019-05-16T01:11:41.020Z,101201.36
2019-05-16T01:14:12.851Z,101204.57
2019-05-16T01:16:44.890Z,101195.41
2019-05-16T01:19:18.552Z,101197.40
2019-05-16T01:21:49.672Z,101191.12
2019-05-16T01:24:21.218Z,101190.33
2019-05-16T01:26:53.306Z,101187.88
2019-05-16T01:29:25.155Z,101185.90
2019-05-16T01:31:59.016Z,101188.73
2019-05-16T01:34:30.803Z,101187.58
2019-05-16T01:37:02.691Z,101186.92
2019-05-16T01:39:34.236Z,101182.08
2019-05-16T01:42:07.840Z,101178.97
2019-05-16T01:44:39.178Z,101173.83
2019-05-16T01:47:10.532Z,101177.41
2019-05-16T01:49:42.433Z,101178.06
2019-05-16T01:52:14.247Z,101177.45
2019-05-16T01:54:47.982Z,101165.30
2019-05-16T01:57:19.323Z,101167.88
2019-05-16T01:59:50.847Z,101164.31
2019-05-16T02:02:22.614Z,101162.09
2019-05-16T02:04:54.640Z,101160.11
2019-05-16T02:07:28.359Z,101155.92
2019-05-16T02:10:01.058Z,101155.86
2019-05-16T02:12:33.038Z,101155.67
2019-05-16T02:15:04.782Z,101149.36
2019-05-16T02:17:38.379Z,101145.60
2019-05-16T02:20:09.509Z,101148.33
2019-05-16T02:22:41.562Z,101140.41
2019-05-16T02:25:13.356Z,101152.70
2019-05-16T02:27:45.301Z,101140.55
2019-05-16T02:30:16.826Z,101137.77
2019-05-16T02:32:51.910Z,101139.61
2019-05-16T02:35:22.256Z,101123.86
2019-05-16T02:37:55.391Z,101136.92
2019-05-16T02:40:27.150Z,101144.50
2019-05-16T02:43:01.750Z,101139.47
2019-05-16T02:45:33.013Z,101122.31
2019-05-16T02:48:04.346Z,101125.29
2019-05-16T02:50:35.872Z,101119.62
2019-05-16T02:53:07.489Z,101120.62
2019-05-16T02:55:41.063Z,101112.04
2019-05-16T02:58:12.619Z,101117.31
2019-05-16T03:00:44.308Z,101113.22
2019-05-16T03:03:15.543Z,101115.20
2019-05-16T03:05:50.582Z,101113.30
2019-05-16T03:08:21.478Z,101114.02
2019-05-16T03:10:54.287Z,101111.23
2019-05-16T03:13:30.884Z,101110.00
2019-05-16T03:16:02.481Z,101107.17
2019-05-16T03:18:34.892Z,101104.92
2019-05-16T03:21:11.167Z,101103.98
2019-05-16T03:23:42.230Z,101098.19
2019-05-16T03:26:14.267Z,101099.83
2019-05-16T03:28:45.771Z,101095.68
2019-05-16T03:31:23.737Z,101089.80
2019-05-16T03:33:58.739Z,101094.09
2019-05-16T03:36:25.730Z,101092.30
2019-05-16T03:39:01.101Z,101087.10
2019-05-16T03:41:31.029Z,101085.84
2019-05-16T03:44:02.673Z,101081.61
2019-05-16T03:46:34.750Z,101086.55
2019-05-16T03:49:05.940Z,101085.98
2019-05-16T03:51:37.803Z,101075.83
2019-05-16T03:54:12.465Z,101076.13
2019-05-16T03:56:43.671Z,101075.92
2019-05-16T03:59:14.727Z,101071.19
2019-05-16T04:01:46.543Z,101064.48
2019-05-16T04:04:20.924Z,101065.05
2019-05-16T04:06:51.820Z,101070.67
2019-05-16T04:09:23.666Z,101069.16
2019-05-16T04:11:55.238Z,101069.67
2019-05-16T04:14:30.694Z,101069.87
2019-05-16T04:17:01.809Z,101056.48
2019-05-16T04:19:33.466Z,101063.16
2019-05-16T04:22:05.342Z,101056.63
2019-05-16T04:24:36.847Z,101059.73
2019-05-16T04:27:11.764Z,101060.05
2019-05-16T04:29:42.206Z,101055.02
2019-05-16T04:32:13.807Z,101055.22
2019-05-16T04:34:45.829Z,101059.64
2019-05-16T04:37:17.711Z,101058.57
2019-05-16T04:39:50.596Z,101058.46
2019-05-16T04:42:25.213Z,101055.83
2019-05-16T04:45:01.388Z,101053.81
2019-05-16T04:47:33.675Z,101048.43
2019-05-16T04:50:05.209Z,101057.67
2019-05-16T04:52:37.219Z,101059.51
2019-05-16T04:55:11.844Z,101047.31
2019-05-16T04:57:42.657Z,101040.19
2019-05-16T05:00:16.095Z,101039.05
2019-05-16T05:02:47.976Z,101046.32
2019-05-16T05:05:21.496Z,101038.55
2019-05-16T05:07:52.936Z,101038.88
2019-05-16T05:10:25.051Z,101036.27
2019-05-16T05:12:56.840Z,101034.03
2019-05-16T05:15:30.627Z,101032.16
2019-05-16T05:18:02.005Z,101027.03
2019-05-16T05:20:34.032Z,101036.91
2019-05-16T05:23:06.323Z,101031.91
2019-05-16T05:25:40.392Z,101036.45
2019-05-16T05:28:13.536Z,101023.33
2019-05-16T05:30:45.695Z,101025.59
2019-05-16T05:33:21.149Z,101031.39
2019-05-16T05:35:51.664Z,101033.34
2019-05-16T05:38:24.459Z,101031.89
2019-05-16T05:40:56.609Z,101035.27
2019-05-16T05:43:30.295Z,101031.05
2019-05-16T05:46:01.550Z,101035.83
2019-05-16T05:48:33.525Z,101030.38
2019-05-16T05:51:05.405Z,101028.44
2019-05-16T05:53:36.732Z,101031.09
2019-05-16T05:56:11.368Z,101026.92
2019-05-16T05:58:41.288Z,101023.77
2019-05-16T06:01:12.926Z,101021.80
2019-05-16T06:03:44.725Z,101017.52
2019-05-16T06:06:16.236Z,101014.59
2019-05-16T06:08:50.043Z,101021.27
2019-05-16T06:11:20.989Z,101019.19
2019-05-16T06:13:53.108Z,101013.13
2019-05-16T06:16:25.100Z,101018.80
2019-05-16T06:18:56.838Z,101013.92
2019-05-16T06:21:33.267Z,101020.65
2019-05-16T06:24:03.576Z,101015.09
2019-05-16T06:26:35.628Z,101017.16
2019-05-16T06:29:10.169Z,101010.92
2019-05-16T06:31:41.067Z,101009.73
2019-05-16T06:34:15.271Z,101010.30
2019-05-16T06:36:46.252Z,101012.50
2019-05-16T06:39:19.952Z,101011.05
2019-05-16T06:41:51.757Z,101003.28
2019-05-16T06:44:23.974Z,101005.72
2019-05-16T06:47:09.646Z,100995.30
2019-05-16T06:49:30.408Z,101000.91
2019-05-16T06:52:02.100Z,100996.28
2019-05-16T06:54:33.884Z,100996.87
2019-05-16T06:57:06.263Z,101003.45
2019-05-16T06:59:37.718Z,101001.17
2019-05-16T07:02:15.189Z,101001.77
2019-05-16T07:04:44.577Z,100994.23
2019-05-16T07:07:17.459Z,100986.77
2019-05-16T07:09:59.979Z,100993.98
2019-05-16T07:12:22.817Z,100986.70
2019-05-16T07:14:54.365Z,100984.66
2019-05-16T07:17:26.535Z,100988.55
2019-05-16T07:20:00.726Z,100984.82
2019-05-16T07:22:33.125Z,100976.59
2019-05-16T07:25:04.293Z,100970.64
2019-05-16T07:27:35.988Z,100972.81
2019-05-16T07:30:10.588Z,100974.08
2019-05-16T07:32:41.815Z,100967.03
2019-05-16T07:35:14.366Z,100965.13
2019-05-16T07:37:46.057Z,100960.50
2019-05-16T07:40:23.648Z,100954.89
2019-05-16T07:42:52.002Z,100960.62
2019-05-16T07:45:23.845Z,100951.48
2019-05-16T07:47:55.721Z,100941.73
2019-05-16T07:50:30.053Z,100945.05
2019-05-16T07:53:01.461Z,100938.84
2019-05-16T07:55:32.957Z,100941.01
2019-05-16T07:58:04.276Z,100921.61
2019-05-16T08:00:49.879Z,100927.00
2019-05-16T08:03:10.551Z,100927.26
2019-05-16T08:05:42.109Z,100923.44
2019-05-16T08:08:14.020Z,100918.73
2019-05-16T08:10:46.828Z,100911.64
2019-05-16T08:13:21.234Z,100911.09
2019-05-16T08:15:52.377Z,100910.54
2019-05-16T08:18:24.165Z,100905.57
2019-05-16T08:20:55.992Z,100919.58
2019-05-16T08:23:30.410Z,100913.77
2019-05-16T08:26:01.751Z,100913.81
2019-05-16T08:28:33.869Z,100900.27
2019-05-16T08:31:05.730Z,100900.91
2019-05-16T08:33:41.287Z,100900.55
2019-05-16T08:36:11.984Z,100893.47
2019-05-16T08:38:43.758Z,100893.27
2019-05-16T08:41:17.338Z,100898.05
2019-05-16T08:43:53.386Z,100891.01
2019-05-16T08:46:24.372Z,100889.59
2019-05-16T08:48:56.169Z,100896.55
2019-05-16T08:51:32.719Z,100887.16
2019-05-16T08:54:01.977Z,100884.16
2019-05-16T08:56:34.094Z,100890.41
2019-05-16T08:59:05.063Z,100892.33
2019-05-16T09:01:36.380Z,100886.97
2019-05-16T09:04:11.705Z,100878.56
2019-05-16T09:06:42.449Z,100877.61
2019-05-16T09:09:29.663Z,100870.52
2019-05-16T09:11:48.843Z,100878.70
2019-05-16T09:14:20.340Z,100874.61
2019-05-16T09:16:51.818Z,100869.73
2019-05-16T09:19:23.030Z,100861.73
2019-05-16T09:21:57.832Z,100853.97
2019-05-16T09:24:27.762Z,100860.34
2019-05-16T09:26:59.789Z,100852.98
2019-05-16T09:29:31.380Z,100849.09
2019-05-16T09:32:12.645Z,100826.77
2019-05-16T09:34:37.938Z,100839.02
2019-05-16T09:37:09.417Z,100844.09
2019-05-16T09:39:40.987Z,100844.61
2019-05-16T09:42:13.051Z,100834.92
2019-05-16T09:44:47.490Z,100836.38
2019-05-16T09:47:19.184Z,100829.61
2019-05-16T09:49:50.979Z,100832.23
2019-05-16T09:52:22.888Z,100828.00
2019-05-16T09:54:54.390Z,100828.88
2019-05-16T09:57:27.786Z,100827.55
2019-05-16T09:59:59.282Z,100821.75
2019-05-16T10:02:31.123Z,100819.30
2019-05-16T10:05:03.228Z,100819.55
2019-05-16T10:07:38.767Z,100819.84
2019-05-16T10:10:10.079Z,100821.30
2019-05-16T10:12:41.302Z,100814.16
2019-05-16T10:15:13.737Z,100817.73
2019-05-16T10:17:47.609Z,100815.76
2019-05-16T10:20:18.644Z,100806.90
2019-05-16T10:22:50.794Z,100806.12
2019-05-16T10:25:22.237Z,100793.84
2019-05-16T10:27:53.607Z,100795.59
2019-05-16T10:30:26.957Z,100784.38
2019-05-16T10:33:00.856Z,100789.86
2019-05-16T10:35:32.251Z,100784.72
2019-05-16T10:38:03.820Z,100790.31
2019-05-16T10:40:36.867Z,100793.73
2019-05-16T10:43:09.046Z,100781.36
2019-05-16T10:45:41.006Z,100784.33
2019-05-16T10:48:13.379Z,100777.65
2019-05-16T10:50:47.458Z,100782.94
2019-05-16T10:53:55.606Z,100769.30
2019-05-16T10:55:51.376Z,100769.94
2019-05-16T10:58:35.301Z,100760.25
2019-05-16T11:01:24.443Z,100761.77
2019-05-16T11:03:30.773Z,100759.08
2019-05-16T11:06:06.021Z,100760.36
2019-05-16T11:08:37.144Z,100752.22
2019-05-16T11:11:09.979Z,100751.70
2019-05-16T11:13:41.943Z,100745.95
2019-05-16T11:16:13.610Z,100744.64
2019-05-16T11:18:46.266Z,100740.80
2019-05-16T11:21:19.299Z,100746.18
2019-05-16T11:23:50.936Z,100744.70
2019-05-16T11:26:22.306Z,100742.67
2019-05-16T11:28:56.606Z,100738.78
2019-05-16T11:31:27.392Z,100735.97
2019-05-16T11:33:59.074Z,100738.75
2019-05-16T11:36:31.007Z,100733.25
2019-05-16T11:39:03.725Z,100732.19
2019-05-16T11:41:35.962Z,100733.25
2019-05-16T11:44:08.064Z,100727.71
2019-05-16T11:46:39.690Z,100731.63
2019-05-16T11:49:11.541Z,100730.48
2019-05-16T11:51:43.240Z,100729.37
2019-05-16T11:54:14.753Z,100726.84
2019-05-16T11:56:46.818Z,100724.42
2019-05-16T11:59:18.255Z,100720.89
2019-05-16T12:01:50.445Z,100716.83
2019-05-16T12:04:22.123Z,100716.83
2019-05-16T12:06:53.711Z,100713.13
2019-05-16T12:09:32.208Z,100711.18
2019-05-16T12:12:03.862Z,100706.27
2019-05-16T12:14:32.513Z,100697.19
2019-05-16T12:17:04.271Z,100698.66
2019-05-16T12:19:42.814Z,100690.59
2019-05-16T12:22:09.364Z,100687.08
2019-05-16T12:24:41.648Z,100680.75
2019-05-16T12:27:13.821Z,100679.38
2019-05-16T12:29:50.209Z,100681.55
2019-05-16T12:32:18.390Z,100674.36
2019-05-16T12:34:49.613Z,100674.36
2019-05-16T12:37:20.872Z,100676.58
2019-05-16T12:39:52.536Z,100675.79
2019-05-16T12:42:26.917Z,100680.75
2019-05-16T12:44:57.673Z,100670.49
2019-05-16T12:47:29.603Z,100669.92
2019-05-16T12:50:01.201Z,100658.02
2019-05-16T12:52:32.877Z,100654.98
2019-05-16T12:55:04.827Z,100657.05
2019-05-16T12:57:38.285Z,100654.57
2019-05-16T13:00:15.251Z,100651.56
2019-05-16T13:02:47.116Z,100648.76
2019-05-16T13:05:18.181Z,100649.95
2019-05-16T13:07:50.049Z,100640.66
2019-05-16T13:10:22.614Z,100637.33
2019-05-16T13:12:57.981Z,100639.05
2019-05-16T13:15:37.849Z,100634.96
2019-05-16T13:18:08.863Z,100635.95
2019-05-16T13:20:41.441Z,100632.77
2019-05-16T13:23:14.892Z,100624.73
2019-05-16T13:25:48.153Z,100613.39
2019-05-16T13:28:19.989Z,100613.39
2019-05-16T13:30:51.581Z,100611.20
2019-05-16T13:33:24.238Z,100609.73
2019-05-16T13:35:57.835Z,100604.38
2019-05-16T13:38:29.366Z,100604.08
2019-05-16T13:41:01.335Z,100605.79
2019-05-16T13:43:32.687Z,100600.97
2019-05-16T13:46:07.100Z,100596.53
2019-05-16T13:48:39.261Z,100589.33
2019-05-16T13:51:15.545Z,100583.28
2019-05-16T13:53:47.032Z,100582.52
2019-05-16T13:56:18.331Z,100579.00
2019-05-16T13:58:49.708Z,100577.86
2019-05-16T14:01:22.227Z,100576.94
2019-05-16T14:03:54.321Z,100572.09
2019-05-16T14:06:26.285Z,100560.71
2019-05-16T14:08:58.445Z,100550.60
2019-05-16T14:11:30.560Z,100543.30
2019-05-16T14:14:04.805Z,100543.16
2019-05-16T14:16:37.692Z,100545.40
2019-05-16T14:19:09.984Z,100540.42
2019-05-16T14:21:41.995Z,100536.47
2019-05-16T14:24:13.717Z,100538.47
2019-05-16T14:26:46.462Z,100530.31
2019-05-16T14:29:18.080Z,100525.33
2019-05-16T14:31:50.363Z,100526.66
2019-05-16T14:34:21.991Z,100526.66
2019-05-16T14:36:53.549Z,100525.02
2019-05-16T14:39:28.309Z,100521.23
2019-05-16T14:41:59.020Z,100522.69
2019-05-16T14:44:30.757Z,100524.91
2019-05-16T14:47:02.662Z,100521.91
2019-05-16T14:49:37.220Z,100516.92
2019-05-16T14:52:07.854Z,100516.99
2019-05-16T14:54:39.457Z,100515.07
2019-05-16T14:57:11.344Z,100512.43
2019-05-16T14:59:42.878Z,100509.44
2019-05-16T15:02:14.466Z,100521.91
2019-05-16T15:04:49.446Z,100521.91
2019-05-16T15:07:19.727Z,100514.90
2019-05-16T15:09:51.618Z,100503.56
2019-05-16T15:12:23.418Z,100509.66
2019-05-16T15:14:58.685Z,100507.77
2019-05-16T15:17:28.152Z,100507.52
2019-05-16T15:19:59.715Z,100507.22
2019-05-16T15:22:31.900Z,100507.58
2019-05-16T15:25:03.571Z,100506.27
2019-05-16T15:27:37.130Z,100503.73
2019-05-16T15:30:09.364Z,100496.05
2019-05-16T15:32:40.846Z,100498.86
2019-05-16T15:35:12.716Z,100497.28
2019-05-16T15:37:44.473Z,100496.91
2019-05-16T15:40:17.725Z,100503.09
2019-05-16T15:42:50.027Z,100501.86
2019-05-16T15:45:35.630Z,100505.13
2019-05-16T15:47:59.917Z,100500.22
2019-05-16T15:50:31.890Z,100501.66
2019-05-16T15:53:04.435Z,100490.44
2019-05-16T15:55:36.403Z,100490.95
2019-05-16T15:58:10.491Z,100486.95
2019-05-16T16:00:47.472Z,100490.48
2019-05-16T16:03:18.405Z,100488.35
2019-05-16T16:05:49.802Z,100484.85
2019-05-16T16:08:21.635Z,100482.63
2019-05-16T16:10:53.573Z,100476.98
2019-05-16T16:13:26.833Z,100473.61
2019-05-16T16:15:58.548Z,100472.59
2019-05-16T16:18:30.224Z,100475.98
2019-05-16T16:21:02.034Z,100476.98
2019-05-16T16:23:33.993Z,100472.86
2019-05-16T16:26:12.464Z,100472.79
2019-05-16T16:28:43.978Z,100468.16
2019-05-16T16:31:16.962Z,100476.38
2019-05-16T16:33:49.886Z,100474.14
2019-05-16T16:36:21.652Z,100474.19
2019-05-16T16:38:57.634Z,100474.25
2019-05-16T16:41:29.549Z,100473.61
2019-05-16T16:44:01.476Z,100475.95
2019-05-16T16:46:32.590Z,100470.42
2019-05-16T16:49:04.670Z,100466.21
2019-05-16T16:51:37.442Z,100469.67
2019-05-16T16:54:09.541Z,100477.31
2019-05-16T16:56:41.725Z,100474.27
2019-05-16T16:59:13.731Z,100476.98
2019-05-16T17:01:46.554Z,100478.88
2019-05-16T17:04:18.253Z,100473.52
2019-05-16T17:06:50.287Z,100474.48
2019-05-16T17:09:22.201Z,100478.04
2019-05-16T17:11:54.179Z,100473.89
2019-05-16T17:14:26.446Z,100472.20
2019-05-16T17:16:57.937Z,100468.61
2019-05-16T17:19:30.112Z,100465.13
2019-05-16T17:22:13.740Z,100462.93
2019-05-16T17:24:36.714Z,100461.91
2019-05-16T17:27:08.788Z,100462.16
2019-05-16T17:29:40.542Z,100460.58
2019-05-16T17:32:13.688Z,100463.44
2019-05-16T17:34:46.157Z,100464.87
2019-05-16T17:37:18.042Z,100462.01
2019-05-16T17:39:50.484Z,100473.39
2019-05-16T17:42:22.153Z,100465.13
2019-05-16T17:44:53.565Z,100466.08
2019-05-16T17:47:26.282Z,100466.56
2019-05-16T17:49:58.240Z,100468.83
2019-05-16T17:52:29.601Z,100467.30
2019-05-16T17:55:01.480Z,100465.90
2019-05-16T17:57:37.151Z,100472.41
2019-05-16T18:00:12.349Z,100475.80
2019-05-16T18:02:43.363Z,100477.97
2019-05-16T18:05:16.968Z,100478.11
2019-05-16T18:07:48.329Z,100478.08
2019-05-16T18:10:20.713Z,100481.72
2019-05-16T18:12:52.672Z,100480.58
2019-05-16T18:15:24.950Z,100478.85
2019-05-16T18:17:56.632Z,100481.09
2019-05-16T18:20:28.856Z,100478.88
2019-05-16T18:23:00.938Z,100481.37
2019-05-16T18:25:32.705Z,100484.46
2019-05-16T18:28:04.248Z,100483.63
2019-05-16T18:30:36.604Z,100482.84
2019-05-16T18:33:10.307Z,100485.67
2019-05-16T18:35:41.980Z,100481.16
2019-05-16T18:38:14.564Z,100488.78
2019-05-16T18:40:47.525Z,100484.02
2019-05-16T18:43:21.425Z,100479.95
2019-05-16T18:45:53.208Z,100485.78
2019-05-16T18:48:27.268Z,100485.19
2019-05-16T18:50:59.480Z,100471.69
2019-05-16T18:53:30.841Z,100477.44
2019-05-16T18:56:02.702Z,100474.08
2019-05-16T18:58:37.030Z,100475.10
2019-05-16T19:01:07.931Z,100476.94
2019-05-16T19:03:39.859Z,100477.52
2019-05-16T19:06:12.071Z,100477.22
2019-05-16T19:08:44.739Z,100478.04
2019-05-16T19:11:17.561Z,100475.70
2019-05-16T19:13:49.609Z,100480.91
2019-05-16T19:16:21.744Z,100479.31
2019-05-16T19:18:53.649Z,100482.75
2019-05-16T19:21:26.269Z,100474.33
2019-05-16T19:23:59.187Z,100472.20
2019-05-16T19:26:30.534Z,100476.08
2019-05-16T19:29:02.377Z,100476.08
2019-05-16T19:31:38.850Z,100475.69
2019-05-16T19:34:09.080Z,100481.88
2019-05-16T19:36:41.056Z,100477.40
2019-05-16T19:39:12.587Z,100481.66
2019-05-16T19:41:46.535Z,100481.66
2019-05-16T19:44:17.885Z,100479.86
2019-05-16T19:46:49.496Z,100482.91
2019-05-16T19:49:21.825Z,100476.64
2019-05-16T19:51:53.846Z,100476.79
2019-05-16T19:54:26.973Z,100481.37
2019-05-16T19:56:58.884Z,100481.82
2019-05-16T19:59:30.756Z,100486.12
2019-05-16T20:02:02.185Z,100474.33
2019-05-16T20:04:33.971Z,100475.80
2019-05-16T20:07:07.390Z,100467.17
2019-05-16T20:09:40.564Z,100479.27
2019-05-16T20:12:12.727Z,100474.98
2019-05-16T20:14:44.253Z,100465.98
2019-05-16T20:17:16.222Z,100469.09
2019-05-16T20:19:48.654Z,100466.84
2019-05-16T20:22:20.051Z,100473.27
2019-05-16T20:24:51.998Z,100466.67
2019-05-16T20:27:23.916Z,100467.06
2019-05-16T20:29:56.400Z,100467.13
2019-05-16T20:32:28.767Z,100468.33
2019-05-16T20:35:00.937Z,100470.80
2019-05-16T20:37:32.468Z,100464.55
2019-05-16T20:40:03.868Z,100460.93
2019-05-16T20:42:36.720Z,100465.56
2019-05-16T20:45:09.361Z,100466.53
2019-05-16T20:47:40.934Z,100467.37
2019-05-16T20:50:12.725Z,100472.28
2019-05-16T20:52:46.642Z,100465.34
2019-05-16T20:55:18.401Z,100462.44
2019-05-16T20:57:50.468Z,100462.73
2019-05-16T21:00:22.457Z,100458.41
2019-05-16T21:02:54.480Z,100457.13
2019-05-16T21:05:26.847Z,100454.40
2019-05-16T21:07:58.423Z,100448.39
2019-05-16T21:10:29.669Z,100450.98
2019-05-16T21:13:01.975Z,100447.50
2019-05-16T21:15:33.733Z,100445.09
2019-05-16T21:18:07.534Z,100445.16
2019-05-16T21:20:39.280Z,100443.28
2019-05-16T21:23:10.919Z,100440.83
2019-05-16T21:25:43.054Z,100436.13
2019-05-16T21:28:17.094Z,100433.77
2019-05-16T21:30:48.096Z,100432.86
2019-05-16T21:33:20.334Z,100427.28
2019-05-16T21:35:52.578Z,100429.09
2019-05-16T21:38:26.945Z,100431.58
2019-05-16T21:40:58.407Z,100428.13
2019-05-16T21:43:30.730Z,100421.71
2019-05-16T21:46:02.842Z,100420.67
2019-05-16T21:48:37.003Z,100423.80
2019-05-16T21:51:09.008Z,100426.74
2019-05-16T21:53:41.114Z,100422.48
2019-05-16T21:56:13.282Z,100416.69
2019-05-16T21:58:47.211Z,100411.19
2019-05-16T22:01:20.440Z,100413.64
2019-05-16T22:03:53.092Z,100413.78
2019-05-16T22:06:24.713Z,100406.95
2019-05-16T22:08:57.393Z,100408.02
2019-05-16T22:11:29.899Z,100407.77
2019-05-16T22:14:03.113Z,100406.34
2019-05-16T22:16:37.131Z,100407.15
2019-05-16T22:19:09.502Z,100404.54
2019-05-16T22:21:41.356Z,100409.53
2019-05-16T22:24:12.844Z,100404.98
2019-05-16T22:26:46.666Z,100405.61
2019-05-16T22:29:21.291Z,100408.36
2019-05-16T22:31:53.173Z,100405.16
2019-05-16T22:34:26.461Z,100409.23
2019-05-16T22:36:58.510Z,100406.08
2019-05-16T22:39:30.738Z,100400.33
2019-05-16T22:42:02.631Z,100398.48
2019-05-16T22:44:37.060Z,100399.48
2019-05-16T22:47:08.003Z,100395.92
2019-05-16T22:49:40.427Z,100391.55
2019-05-16T22:52:12.275Z,100390.82
2019-05-16T22:54:44.398Z,100389.36
2019-05-16T22:57:17.641Z,100384.03
2019-05-16T22:59:49.765Z,100385.20
2019-05-16T23:02:21.692Z,100378.45
2019-05-16T23:04:53.546Z,100377.39
2019-05-16T23:07:27.424Z,100379.70
2019-05-16T23:09:59.122Z,100374.97
2019-05-16T23:12:31.511Z,100378.42
2019-05-16T23:15:03.220Z,100373.64
2019-05-16T23:17:37.320Z,100379.55
2019-05-16T23:20:08.246Z,100373.72
2019-05-16T23:22:40.138Z,100375.11
2019-05-16T23:25:11.636Z,100371.30
2019-05-16T23:27:43.946Z,100371.47
2019-05-16T23:30:16.545Z,100378.89
2019-05-16T23:32:49.528Z,100367.48
2019-05-16T23:35:21.327Z,100362.31
2019-05-16T23:37:53.170Z,100364.81
2019-05-16T23:40:25.020Z,100361.46
2019-05-16T23:42:56.953Z,100361.33
2019-05-16T23:45:28.347Z,100356.83
2019-05-16T23:48:00.372Z,100363.89
2019-05-16T23:50:32.278Z,100358.05
2019-05-16T23:53:04.219Z,100354.67
2019-05-16T23:55:37.113Z,100361.43
2019-05-16T23:58:09.783Z,100358.97
